Time;durP1;ratioP1;P1;durP2;ratioP2;P2;SDS_P1;SDS_P2;PMS_P1;PMS_P2;Temp;Humidity;BMP_temperature;BMP_pressure;BME280_temperature;BME280_humidity;BME280_pressure;Samples;Min_cycle;Max_cycle;Signal;HPM_P1;HPM_P2
2021/03/13 00:00:49;;;;;;;9.90;4.43;;;;;;;-5.98;70.82;99426.50;5048293;28;20163;-57
2021/03/13 00:03:15;;;;;;;7.70;4.80;;;;;;;-6.04;71.15;99432.94;5048052;28;20025;-55
2021/03/13 00:05:42;;;;;;;8.73;4.35;;;;;;;-6.00;71.59;99435.69;5052801;28;20026;-55
2021/03/13 00:08:10;;;;;;;10.38;4.88;;;;;;;-5.95;71.31;99426.59;5063814;28;20091;-55
2021/03/13 00:10:36;;;;;;;7.93;4.60;;;;;;;-5.83;69.79;99422.84;5061701;28;20040;-55
2021/03/13 00:13:07;;;;;;;9.00;4.18;;;;;;;-5.90;70.68;99409.13;5063129;28;20025;-56
2021/03/13 00:15:34;;;;;;;10.80;4.57;;;;;;;-5.84;69.23;99422.00;5054254;28;20058;-55
2021/03/13 00:18:01;;;;;;;6.45;3.92;;;;;;;-5.81;70.45;99419.59;5044161;28;20283;-55
2021/03/13 00:20:29;;;;;;;5.30;4.05;;;;;;;-5.84;70.44;99419.47;5045779;28;20025;-56
2021/03/13 00:22:56;;;;;;;10.10;4.65;;;;;;;-6.13;69.38;99350.28;5062528;28;20257;-56
2021/03/13 00:25:24;;;;;;;12.63;5.45;;;;;;;-6.09;68.92;99358.00;5053098;28;20353;-56
2021/03/13 00:27:51;;;;;;;11.15;4.25;;;;;;;-5.78;69.99;99411.28;5043651;28;20379;-56
2021/03/13 00:30:23;;;;;;;11.52;5.25;;;;;;;-5.69;68.30;99413.31;5048028;28;20025;-55
2021/03/13 00:33:12;;;;;;;8.50;4.63;;;;;;;-6.03;68.77;99338.91;5044048;28;20049;-55
2021/03/13 00:35:40;;;;;;;9.38;3.65;;;;;;;-5.77;68.21;99413.00;5045536;28;20026;-54
2021/03/13 00:38:07;;;;;;;12.80;4.75;;;;;;;-5.69;67.74;99398.19;5043676;28;20110;-54
2021/03/13 00:40:34;;;;;;;7.45;4.45;;;;;;;-5.62;68.54;99397.63;5047989;28;20040;-55
2021/03/13 00:43:01;;;;;;;10.07;4.85;;;;;;;-5.59;67.19;99408.66;5043536;28;20104;-54
2021/03/13 00:45:27;;;;;;;9.80;4.60;;;;;;;-5.61;67.95;99412.81;5046065;28;20218;-54
2021/03/13 00:47:53;;;;;;;10.82;4.65;;;;;;;-5.81;67.08;99411.19;5062260;28;20024;-55
2021/03/13 00:50:23;;;;;;;8.13;4.50;;;;;;;-5.98;67.62;99345.00;5060693;28;20022;-55
2021/03/13 00:52:49;;;;;;;8.23;4.72;;;;;;;-5.66;66.67;99408.38;5062962;28;20044;-56
2021/03/13 00:55:15;;;;;;;8.00;4.22;;;;;;;-5.72;67.30;99404.81;5062960;28;20031;-55
2021/03/13 00:57:41;;;;;;;9.23;4.30;;;;;;;-5.52;67.05;99392.13;5062491;28;20025;-56
2021/03/13 01:00:10;;;;;;;10.35;4.93;;;;;;;-5.67;68.34;99376.38;5062983;28;20040;-55
2021/03/13 01:02:36;;;;;;;6.50;3.80;;;;;;;-5.70;67.77;99382.19;5052094;28;20306;-55
2021/03/13 01:05:03;;;;;;;7.40;4.15;;;;;;;-5.62;67.36;99387.53;5044104;28;20052;-56
2021/03/13 01:07:29;;;;;;;7.70;4.50;;;;;;;-5.61;67.96;99399.34;5042381;28;20093;-55
2021/03/13 01:09:55;;;;;;;8.27;3.65;;;;;;;-5.65;68.84;99397.50;5062915;28;20218;-55
2021/03/13 01:12:21;;;;;;;8.43;4.60;;;;;;;-5.44;68.69;99398.31;5050008;28;20045;-55
2021/03/13 01:14:47;;;;;;;11.60;5.00;;;;;;;-5.43;68.43;99396.66;5045022;28;20391;-55
2021/03/13 01:17:12;;;;;;;6.55;3.80;;;;;;;-5.48;67.55;99399.00;5062573;28;20105;-56
2021/03/13 01:19:38;;;;;;;7.18;4.72;;;;;;;-5.41;68.10;99393.38;5054153;28;20042;-55
2021/03/13 01:22:04;;;;;;;7.32;4.60;;;;;;;-5.52;67.32;99402.19;5046765;28;20230;-55
2021/03/13 01:24:30;;;;;;;8.20;4.82;;;;;;;-5.58;68.90;99392.75;5043559;28;20040;-55
2021/03/13 01:26:56;;;;;;;9.32;5.30;;;;;;;-5.32;67.75;99402.94;5042727;28;20032;-54
2021/03/13 01:29:21;;;;;;;9.73;5.20;;;;;;;-5.29;68.86;99387.06;5042873;28;20029;-55
2021/03/13 01:31:47;;;;;;;8.60;5.25;;;;;;;-5.29;69.86;99392.13;5043079;28;20233;-55
2021/03/13 01:34:13;;;;;;;8.30;4.50;;;;;;;-5.45;67.99;99386.50;5034097;28;20025;-55
2021/03/13 01:36:39;;;;;;;11.57;5.50;;;;;;;-5.27;69.20;99383.81;5059134;28;20033;-55
2021/03/13 01:39:05;;;;;;;8.88;5.25;;;;;;;-5.33;69.43;99388.63;5042610;28;20311;-55
2021/03/13 01:41:31;;;;;;;12.75;5.82;;;;;;;-5.39;69.88;99376.66;5045353;28;20025;-55
2021/03/13 01:43:57;;;;;;;8.13;5.13;;;;;;;-5.42;70.18;99386.59;5051349;28;20052;-56
2021/03/13 01:46:23;;;;;;;7.70;4.88;;;;;;;-5.57;69.38;99374.28;5053280;28;20060;-57
2021/03/13 01:48:50;;;;;;;12.60;5.82;;;;;;;-5.97;70.69;99324.00;5055196;28;20028;-56
2021/03/13 01:51:17;;;;;;;8.48;4.88;;;;;;;-5.55;72.10;99382.75;5045535;28;20029;-57
2021/03/13 01:53:47;;;;;;;10.75;5.78;;;;;;;-5.97;70.85;99307.22;5042447;28;20310;-56
2021/03/13 01:56:15;;;;;;;10.82;6.03;;;;;;;-5.50;71.48;99388.00;5057972;28;20075;-57
2021/03/13 01:58:41;;;;;;;10.93;5.68;;;;;;;-5.55;71.12;99364.25;5042487;28;20331;-54
2021/03/13 02:01:11;;;;;;;9.20;6.25;;;;;;;-5.55;71.49;99377.72;5042803;28;20033;-55
2021/03/13 02:03:43;;;;;;;9.82;5.55;;;;;;;-5.39;71.73;99369.09;5042623;28;20035;-55
2021/03/13 02:06:09;;;;;;;9.32;5.40;;;;;;;-5.47;72.35;99378.03;5052142;28;20060;-55
2021/03/13 02:08:41;;;;;;;10.95;5.57;;;;;;;-5.48;72.63;99386.38;5050458;28;20345;-56
2021/03/13 02:11:24;;;;;;;9.60;5.72;;;;;;;-5.34;72.32;99391.06;5042254;28;20039;-57
2021/03/13 02:14:10;;;;;;;9.32;5.90;;;;;;;-5.41;73.27;99390.00;5054393;28;20229;-56
2021/03/13 02:16:50;;;;;;;8.40;5.43;;;;;;;-5.79;72.70;99317.13;5054135;28;20116;-56
2021/03/13 02:19:25;;;;;;;13.88;6.47;;;;;;;-5.30;74.09;99381.19;5041433;28;20093;-55
2021/03/13 02:21:58;;;;;;;11.15;5.88;;;;;;;-5.43;72.10;99368.88;5047398;28;20044;-54
2021/03/13 02:24:27;;;;;;;12.63;6.10;;;;;;;-5.26;72.40;99382.13;5067424;28;20032;-54
2021/03/13 02:26:59;;;;;;;10.45;5.80;;;;;;;-5.31;72.41;99381.13;5067399;28;20031;-55
2021/03/13 02:29:31;;;;;;;12.80;6.07;;;;;;;-5.49;73.31;99379.59;5057733;28;20033;-56
2021/03/13 02:32:01;;;;;;;9.85;5.85;;;;;;;-5.83;72.99;99309.38;5065202;28;20059;-55
2021/03/13 02:34:31;;;;;;;10.75;5.53;;;;;;;-5.36;72.94;99403.63;5068002;28;20021;-55
2021/03/13 02:37:03;;;;;;;15.48;6.95;;;;;;;-5.55;74.25;99374.34;5068540;28;20075;-55
2021/03/13 02:39:32;;;;;;;12.32;6.60;;;;;;;-5.51;74.63;99367.78;5067833;28;20025;-54
2021/03/13 02:42:02;;;;;;;10.82;6.20;;;;;;;-5.50;73.99;99394.69;5060582;28;20318;-55
2021/03/13 02:44:30;;;;;;;12.35;6.05;;;;;;;-5.77;72.83;99307.97;5064276;28;20313;-55
2021/03/13 02:46:56;;;;;;;11.00;6.80;;;;;;;-5.23;73.24;99379.72;5060036;28;20026;-55
2021/03/13 02:49:25;;;;;;;11.68;5.80;;;;;;;-5.50;74.11;99384.59;5047781;28;20026;-54
2021/03/13 02:51:53;;;;;;;12.45;6.35;;;;;;;-5.85;73.81;99326.97;5061539;28;20025;-56
2021/03/13 02:54:19;;;;;;;12.02;6.05;;;;;;;-5.38;73.58;99378.34;5059703;28;20031;-54
2021/03/13 02:56:46;;;;;;;14.38;6.13;;;;;;;-5.75;73.40;99330.72;5063697;28;20072;-59
2021/03/13 02:59:15;;;;;;;12.35;5.55;;;;;;;-5.67;74.45;99341.97;5064459;28;21574;-54
2021/03/13 03:01:42;;;;;;;13.13;6.80;;;;;;;-5.49;74.58;99372.03;5048863;28;20021;-55
2021/03/13 03:04:12;;;;;;;12.43;5.32;;;;;;;-5.66;73.89;99363.84;5048491;28;20037;-55
2021/03/13 03:06:41;;;;;;;12.05;6.72;;;;;;;-5.58;75.29;99392.75;5067651;28;20029;-54
2021/03/13 03:09:08;;;;;;;12.05;6.72;;;;;;;-5.74;74.26;99340.00;5053248;28;20061;-54
2021/03/13 03:11:35;;;;;;;12.32;6.35;;;;;;;-5.36;75.24;99385.97;5059015;28;20032;-54
2021/03/13 03:14:02;;;;;;;9.80;5.75;;;;;;;-5.43;74.22;99384.91;5062609;28;20043;-52
2021/03/13 03:16:28;;;;;;;13.30;6.68;;;;;;;-5.38;75.42;99373.31;5066499;28;20060;-54
2021/03/13 03:18:57;;;;;;;13.20;6.80;;;;;;;-5.40;74.20;99377.44;5054732;28;20029;-54
2021/03/13 03:21:23;;;;;;;10.93;6.25;;;;;;;-5.62;74.19;99329.53;5048720;28;20175;-57
2021/03/13 03:23:50;;;;;;;14.88;7.15;;;;;;;-5.41;74.51;99370.66;5061037;28;20052;-55
2021/03/13 03:26:17;;;;;;;11.80;7.10;;;;;;;-5.61;73.91;99316.97;5067577;28;20029;-55
2021/03/13 03:28:45;;;;;;;12.95;7.63;;;;;;;-5.22;74.85;99386.50;5065635;28;20026;-55
2021/03/13 03:31:14;;;;;;;11.10;6.55;;;;;;;-5.37;74.29;99361.56;5067851;28;20121;-56
2021/03/13 03:33:41;;;;;;;12.77;6.93;;;;;;;-5.39;74.55;99365.69;5060315;28;20040;-56
2021/03/13 03:36:07;;;;;;;10.55;6.32;;;;;;;-5.47;74.67;99375.50;5063910;28;20288;-55
2021/03/13 03:38:33;;;;;;;11.52;7.70;;;;;;;-5.39;73.43;99368.22;5064575;28;20032;-55
2021/03/13 03:40:59;;;;;;;13.05;6.10;;;;;;;-5.45;74.97;99352.84;5063413;28;20033;-54
2021/03/13 03:43:29;;;;;;;14.18;7.55;;;;;;;-5.28;74.08;99386.28;5063060;28;20378;-55
2021/03/13 03:45:58;;;;;;;14.85;6.15;;;;;;;-5.50;74.83;99372.88;5064514;28;20313;-55
2021/03/13 03:48:24;;;;;;;10.38;6.25;;;;;;;-5.45;74.72;99381.44;5064145;28;20021;-55
2021/03/13 03:50:51;;;;;;;13.43;6.75;;;;;;;-5.55;75.16;99370.16;5064039;28;20028;-55
2021/03/13 03:53:23;;;;;;;11.70;7.35;;;;;;;-5.56;76.09;99387.75;5064018;28;20100;-55
2021/03/13 03:55:52;;;;;;;12.05;6.82;;;;;;;-5.41;76.10;99373.19;5064397;28;20324;-54
2021/03/13 03:58:23;;;;;;;13.27;7.10;;;;;;;-5.80;75.30;99328.03;5063530;28;20056;-55
2021/03/13 04:00:50;;;;;;;24.08;11.35;;;;;;;-5.49;75.16;99361.09;5044152;28;20336;-55
2021/03/13 04:03:19;;;;;;;12.20;7.60;;;;;;;-5.73;76.23;99296.31;5044798;28;20254;-55
2021/03/13 04:05:45;;;;;;;14.20;7.18;;;;;;;-5.17;75.08;99374.91;5048958;28;20313;-56
2021/03/13 04:08:13;;;;;;;14.70;8.02;;;;;;;-5.24;74.25;99372.97;5044778;28;20068;-55
2021/03/13 04:10:43;;;;;;;14.82;7.38;;;;;;;-5.43;75.96;99395.00;5064008;28;20037;-55
2021/03/13 04:13:11;;;;;;;13.50;7.60;;;;;;;-5.36;76.02;99368.31;5063992;28;20033;-55
2021/03/13 04:15:40;;;;;;;19.33;8.00;;;;;;;-5.64;75.19;99306.75;5063322;28;20028;-56
2021/03/13 04:18:06;;;;;;;15.88;7.68;;;;;;;-5.12;75.89;99380.97;5055530;28;20226;-55
2021/03/13 04:20:32;;;;;;;11.23;6.28;;;;;;;-5.29;75.64;99374.47;5062567;28;20033;-56
2021/03/13 04:22:58;;;;;;;15.40;7.65;;;;;;;-5.13;75.65;99378.41;5063655;28;20309;-56
2021/03/13 04:25:25;;;;;;;13.30;8.13;;;;;;;-5.20;76.02;99393.31;5063460;28;20036;-56
2021/03/13 04:27:51;;;;;;;12.70;6.55;;;;;;;-5.23;76.24;99374.66;5063869;28;20267;-56
2021/03/13 04:30:19;;;;;;;15.00;8.40;;;;;;;-5.08;75.02;99399.63;5050673;28;20031;-55
2021/03/13 04:32:47;;;;;;;13.15;8.07;;;;;;;-5.11;75.13;99380.19;5062362;28;20052;-54
2021/03/13 04:35:14;;;;;;;14.98;7.78;;;;;;;-5.01;76.34;99378.00;5063544;28;20095;-57
2021/03/13 04:37:41;;;;;;;15.02;7.70;;;;;;;-5.08;75.62;99372.72;5056664;28;20043;-56
2021/03/13 04:40:08;;;;;;;14.15;7.32;;;;;;;-5.11;76.12;99380.19;5063011;28;20256;-56
2021/03/13 04:42:37;;;;;;;15.63;8.30;;;;;;;-5.16;76.20;99398.47;5043780;28;20357;-56
2021/03/13 04:45:05;;;;;;;14.23;7.78;;;;;;;-5.00;74.37;99362.03;5045734;28;20080;-55
2021/03/13 04:47:31;;;;;;;16.25;8.35;;;;;;;-5.04;75.27;99376.22;5043905;28;20029;-55
2021/03/13 04:49:59;;;;;;;19.23;8.57;;;;;;;-5.03;75.31;99386.38;5049604;28;20056;-55
2021/03/13 04:52:25;;;;;;;17.02;7.97;;;;;;;-5.04;74.67;99371.16;5062456;28;20294;-55
2021/03/13 04:54:50;;;;;;;11.65;7.03;;;;;;;-5.05;74.19;99370.28;5062997;28;20063;-55
2021/03/13 04:57:16;;;;;;;15.05;7.55;;;;;;;-5.10;75.04;99378.50;5062914;28;20025;-55
2021/03/13 04:59:42;;;;;;;15.52;8.27;;;;;;;-4.94;74.11;99375.72;5044531;28;20092;-54
2021/03/13 05:02:08;;;;;;;15.93;7.82;;;;;;;-5.05;76.02;99375.34;5050701;28;20302;-54
2021/03/13 05:04:34;;;;;;;12.85;7.65;;;;;;;-4.99;74.44;99356.19;5054846;28;20675;-57
2021/03/13 05:06:59;;;;;;;12.30;6.20;;;;;;;-5.06;75.61;99366.06;5054805;28;20310;-56
2021/03/13 05:09:25;;;;;;;18.23;8.38;;;;;;;-5.06;75.58;99367.72;5062558;28;20021;-56
2021/03/13 05:11:51;;;;;;;16.00;8.65;;;;;;;-5.04;75.67;99366.13;5062726;28;20021;-56
2021/03/13 05:14:17;;;;;;;17.30;8.35;;;;;;;-5.05;75.69;99372.81;5060003;28;20024;-56
2021/03/13 05:16:42;;;;;;;12.70;7.10;;;;;;;-5.11;75.76;99370.06;5046379;28;20318;-55
2021/03/13 05:19:08;;;;;;;16.05;8.60;;;;;;;-4.85;76.31;99363.41;5044896;28;20279;-56
2021/03/13 05:21:35;;;;;;;14.85;8.25;;;;;;;-4.80;75.30;99378.75;5054101;28;20067;-56
2021/03/13 05:24:01;;;;;;;14.57;7.13;;;;;;;-5.08;75.94;99375.22;5056350;28;20021;-56
2021/03/13 05:26:27;;;;;;;14.70;8.20;;;;;;;-4.98;74.56;99357.91;5060297;28;20090;-57
2021/03/13 05:28:55;;;;;;;12.93;7.70;;;;;;;-4.88;76.19;99373.41;5056969;28;20037;-58
2021/03/13 05:31:22;;;;;;;12.32;7.35;;;;;;;-5.08;75.50;99375.22;5059139;28;20242;-56
2021/03/13 05:33:48;;;;;;;14.70;8.02;;;;;;;-4.92;75.23;99374.09;5061859;28;20045;-55
2021/03/13 05:36:14;;;;;;;15.07;8.43;;;;;;;-4.90;75.24;99376.72;5053697;28;20029;-53
2021/03/13 05:38:40;;;;;;;16.75;8.25;;;;;;;-4.75;74.88;99373.84;5042685;28;20302;-54
2021/03/13 05:41:06;;;;;;;11.70;6.13;;;;;;;-4.85;75.99;99380.25;5042737;28;20036;-55
2021/03/13 05:43:33;;;;;;;12.95;7.93;;;;;;;-5.06;75.30;99312.19;5042666;28;20337;-56
2021/03/13 05:46:02;;;;;;;16.92;8.68;;;;;;;-4.68;75.03;99396.84;5044948;28;20026;-55
2021/03/13 05:48:30;;;;;;;12.60;7.75;;;;;;;-4.61;74.50;99362.56;5044456;28;20065;-55
2021/03/13 05:50:59;;;;;;;10.18;6.40;;;;;;;-4.87;75.40;99400.41;5062113;28;20025;-55
2021/03/13 05:53:25;;;;;;;12.70;7.82;;;;;;;-4.60;74.45;99386.13;5061664;28;20025;-54
2021/03/13 05:55:54;;;;;;;16.13;7.38;;;;;;;-4.63;74.58;99386.03;5055471;28;20043;-55
2021/03/13 05:58:22;;;;;;;13.07;6.97;;;;;;;-4.83;75.87;99385.34;5042058;28;20037;-55
2021/03/13 06:00:48;;;;;;;11.65;7.07;;;;;;;-4.75;75.19;99387.34;5052877;28;20025;-55
2021/03/13 06:03:14;;;;;;;16.55;8.55;;;;;;;-4.60;76.48;99378.56;5060199;28;20025;-55
2021/03/13 06:05:44;;;;;;;15.80;8.80;;;;;;;-4.48;75.52;99386.56;5045151;28;20096;-55
2021/03/13 06:08:11;;;;;;;12.60;6.55;;;;;;;-4.61;74.45;99380.25;5058023;28;20056;-55
2021/03/13 06:10:37;;;;;;;14.07;7.90;;;;;;;-4.72;75.60;99390.00;5061476;28;20056;-55
2021/03/13 06:13:03;;;;;;;13.88;7.70;;;;;;;-4.73;75.21;99385.75;5061848;28;20032;-55
2021/03/13 06:15:29;;;;;;;20.90;9.05;;;;;;;-4.55;75.30;99382.13;5045663;28;20268;-55
2021/03/13 06:17:59;;;;;;;18.70;9.27;;;;;;;-4.54;74.11;99389.75;5047732;28;20041;-56
2021/03/13 06:20:36;;;;;;;14.85;8.05;;;;;;;-4.43;75.86;99405.28;5061385;28;20055;-54
2021/03/13 06:23:06;;;;;;;12.85;8.45;;;;;;;-4.65;74.73;99357.34;5056535;28;20029;-55
2021/03/13 06:25:33;;;;;;;21.88;9.50;;;;;;;-4.77;74.86;99317.38;5053838;28;20356;-55
2021/03/13 06:28:08;;;;;;;14.13;8.07;;;;;;;-4.09;75.79;99388.72;5055384;28;20029;-56
2021/03/13 06:30:45;;;;;;;14.25;8.48;;;;;;;-4.11;74.85;99381.88;5050205;28;20052;-54
2021/03/13 06:33:17;;;;;;;13.48;6.55;;;;;;;-4.37;74.92;99392.84;5041927;28;20033;-55
2021/03/13 06:35:43;;;;;;;14.05;8.02;;;;;;;-4.24;74.19;99404.22;5049618;28;20025;-56
2021/03/13 06:38:15;;;;;;;10.45;6.07;;;;;;;-5.06;74.39;99334.91;5057578;28;20329;-54
2021/03/13 06:40:41;;;;;;;13.30;8.13;;;;;;;-4.63;76.08;99397.03;5061612;28;20035;-55
2021/03/13 06:43:20;;;;;;;14.05;7.97;;;;;;;-4.41;75.48;99401.13;5060279;28;20040;-55
2021/03/13 06:45:56;;;;;;;13.18;8.43;;;;;;;-4.82;75.22;99345.00;5055617;28;20030;-55
2021/03/13 06:48:38;;;;;;;13.68;8.07;;;;;;;-4.73;75.25;99339.38;5042083;28;20033;-55
2021/03/13 06:51:19;;;;;;;13.93;7.63;;;;;;;-4.54;75.32;99432.69;5042361;28;20025;-55
2021/03/13 06:54:06;;;;;;;14.40;8.18;;;;;;;-4.32;75.55;99400.56;5053762;28;20036;-55
2021/03/13 06:56:37;;;;;;;14.35;7.55;;;;;;;-4.50;75.85;99405.88;5061029;28;20028;-56
2021/03/13 06:59:19;;;;;;;16.30;8.80;;;;;;;-4.51;76.17;99351.94;5054501;28;20037;-54
2021/03/13 07:01:45;;;;;;;12.02;7.25;;;;;;;-4.16;75.90;99407.03;5053507;28;20104;-55
2021/03/13 07:04:12;;;;;;;15.63;7.28;;;;;;;-4.05;73.84;99405.69;5060246;28;20025;-55
2021/03/13 07:06:45;;;;;;;19.15;8.38;;;;;;;-4.12;75.09;99392.78;5059146;28;20340;-55
2021/03/13 07:09:11;;;;;;;13.30;7.90;;;;;;;-3.94;73.17;99395.91;5049997;28;20028;-55
2021/03/13 07:11:36;;;;;;;12.68;7.82;;;;;;;-3.87;73.74;99407.09;5052763;28;20053;-56
2021/03/13 07:14:02;;;;;;;15.68;8.55;;;;;;;-3.70;73.11;99405.09;5054136;28;20040;-55
2021/03/13 07:16:35;;;;;;;15.65;8.48;;;;;;;-3.88;72.72;99403.69;5045682;28;20144;-55
2021/03/13 07:19:12;;;;;;;12.85;7.70;;;;;;;-3.79;72.71;99420.88;5045276;28;20026;-56
2021/03/13 07:21:42;;;;;;;16.92;8.45;;;;;;;-3.88;73.34;99390.19;5045167;28;20036;-56
2021/03/13 07:24:13;;;;;;;16.73;8.55;;;;;;;-4.05;72.46;99319.69;5048481;28;20033;-55
2021/03/13 07:26:43;;;;;;;14.00;8.03;;;;;;;-4.00;71.62;99357.81;5060070;28;20040;-55
2021/03/13 07:29:12;;;;;;;12.40;7.15;;;;;;;-4.09;73.30;99372.66;5057653;28;20273;-55
2021/03/13 07:31:49;;;;;;;12.52;7.50;;;;;;;-3.84;73.84;99409.72;5048714;28;20021;-56
2021/03/13 07:34:26;;;;;;;13.27;7.72;;;;;;;-3.82;73.01;99395.44;5064526;28;20029;-55
2021/03/13 07:36:54;;;;;;;14.95;8.48;;;;;;;-3.68;73.35;99401.81;5053584;28;20037;-56
2021/03/13 07:39:28;;;;;;;14.02;7.10;;;;;;;-3.89;74.01;99394.41;5053225;28;20214;-56
2021/03/13 07:42:03;;;;;;;14.38;8.15;;;;;;;-3.71;73.30;99414.34;5064760;28;20317;-56
2021/03/13 07:44:30;;;;;;;13.63;7.95;;;;;;;-3.75;73.98;99382.16;5047740;28;20048;-55
2021/03/13 07:46:57;;;;;;;14.65;8.43;;;;;;;-3.40;73.40;99371.41;5057242;28;20222;-57
2021/03/13 07:49:23;;;;;;;16.65;8.95;;;;;;;-3.23;72.89;99379.50;5045078;28;20056;-57
2021/03/13 07:51:50;;;;;;;16.83;9.30;;;;;;;-3.20;73.28;99389.72;5044843;28;20237;-56
2021/03/13 07:54:17;;;;;;;12.23;8.10;;;;;;;-3.51;72.53;99388.81;5044926;28;20285;-55
2021/03/13 07:56:45;;;;;;;14.35;8.55;;;;;;;-3.60;73.05;99389.38;5052469;28;20033;-57
2021/03/13 07:59:11;;;;;;;15.65;8.57;;;;;;;-3.48;73.41;99394.84;5049185;28;20327;-56
2021/03/13 08:01:48;;;;;;;13.15;7.90;;;;;;;-3.62;73.63;99392.69;5060941;28;20044;-55
2021/03/13 08:04:43;;;;;;;17.98;8.40;;;;;;;-3.37;73.76;99395.13;5044705;28;20176;-56
2021/03/13 08:07:10;;;;;;;16.38;9.25;;;;;;;-3.25;73.37;99389.59;5046693;28;20060;-55
2021/03/13 08:09:43;;;;;;;16.27;9.05;;;;;;;-2.97;72.49;99387.84;5063346;28;20028;-56
2021/03/13 08:12:10;;;;;;;14.48;8.68;;;;;;;-3.17;72.49;99384.75;5063564;28;20032;-56
2021/03/13 08:14:36;;;;;;;13.40;7.78;;;;;;;-3.18;73.17;99388.06;5063606;28;20238;-56
2021/03/13 08:17:09;;;;;;;15.23;8.38;;;;;;;-3.00;72.16;99386.06;5063751;28;20045;-55
2021/03/13 08:19:44;;;;;;;16.10;9.30;;;;;;;-2.79;72.82;99372.28;5063638;28;20043;-56
2021/03/13 08:22:11;;;;;;;16.42;9.18;;;;;;;-2.46;72.87;99396.81;5047932;28;20032;-56
2021/03/13 08:24:47;;;;;;;15.00;9.02;;;;;;;-3.10;71.61;99317.41;5063060;28;20070;-55
2021/03/13 08:27:15;;;;;;;16.15;9.30;;;;;;;-2.66;72.66;99383.63;5063618;28;20021;-56
2021/03/13 08:29:45;;;;;;;19.05;9.55;;;;;;;-2.49;71.48;99381.53;5052247;28;20076;-55
2021/03/13 08:32:10;;;;;;;16.95;8.93;;;;;;;-2.57;71.69;99385.53;5046409;28;20033;-54
2021/03/13 08:34:36;;;;;;;18.42;9.18;;;;;;;-2.56;71.59;99380.50;5044008;28;20144;-56
2021/03/13 08:37:22;;;;;;;17.70;9.10;;;;;;;-2.63;71.95;99350.75;5050383;28;20037;-57
2021/03/13 08:39:49;;;;;;;15.25;8.75;;;;;;;-2.41;71.56;99380.03;5043734;28;20021;-56
2021/03/13 08:42:31;;;;;;;17.80;8.45;;;;;;;-2.96;72.49;99390.41;5043865;28;20294;-56
2021/03/13 08:45:16;;;;;;;15.68;9.30;;;;;;;-3.18;72.46;99324.78;5042262;28;20033;-55
2021/03/13 08:47:49;;;;;;;15.45;8.40;;;;;;;-2.79;72.07;99375.66;5048813;28;20033;-54
2021/03/13 08:50:46;;;;;;;13.30;8.65;;;;;;;-2.97;71.81;99370.94;5050472;28;20025;-56
2021/03/13 08:53:36;;;;;;;14.07;8.60;;;;;;;-2.97;73.12;99327.88;5048189;28;20016;-55
2021/03/13 08:56:03;;;;;;;15.88;9.82;;;;;;;-2.52;72.73;99372.16;5050297;28;20025;-55
2021/03/13 08:58:39;;;;;;;13.88;8.18;;;;;;;-2.88;73.17;99372.91;5045986;28;20032;-55
2021/03/13 09:01:19;;;;;;;14.32;8.98;;;;;;;-2.97;73.80;99307.63;5051035;28;20039;-56
2021/03/13 09:03:50;;;;;;;15.90;8.88;;;;;;;-2.86;73.87;99375.47;5050275;28;20036;-56
2021/03/13 09:06:18;;;;;;;15.30;9.55;;;;;;;-3.27;72.83;99312.72;5050130;28;20303;-55
2021/03/13 09:08:44;;;;;;;14.15;8.48;;;;;;;-2.74;73.76;99368.19;5047725;28;20045;-55
2021/03/13 09:11:10;;;;;;;17.20;9.73;;;;;;;-2.70;73.66;99374.22;5046015;28;20092;-57
2021/03/13 09:13:37;;;;;;;16.00;9.00;;;;;;;-2.75;73.85;99381.69;5045144;28;20017;-56
2021/03/13 09:16:18;;;;;;;16.95;8.27;;;;;;;-2.90;74.16;99377.06;5049598;28;20021;-56
2021/03/13 09:18:56;;;;;;;13.68;8.93;;;;;;;-2.74;73.98;99370.72;5050462;28;20076;-55
2021/03/13 09:21:40;;;;;;;16.35;8.68;;;;;;;-2.78;73.78;99376.53;5047986;28;20222;-56
2021/03/13 09:24:09;;;;;;;21.15;10.40;;;;;;;-2.90;74.29;99315.41;5050938;28;20088;-55
2021/03/13 09:26:34;;;;;;;20.35;9.35;;;;;;;-2.74;74.18;99378.31;5049546;28;20075;-55
2021/03/13 09:29:00;;;;;;;14.65;8.55;;;;;;;-2.53;72.97;99379.72;5049148;28;20017;-55
2021/03/13 09:31:27;;;;;;;19.25;9.15;;;;;;;-2.49;73.60;99379.00;5046203;28;20215;-55
2021/03/13 09:33:53;;;;;;;15.43;9.43;;;;;;;-2.58;73.48;99373.66;5047336;28;20097;-55
2021/03/13 09:36:18;;;;;;;14.43;9.05;;;;;;;-2.52;73.19;99378.88;5050486;28;20023;-55
2021/03/13 09:39:11;;;;;;;14.15;7.57;;;;;;;-2.88;73.54;99377.09;5050472;28;20205;-55
2021/03/13 09:41:37;;;;;;;17.27;8.68;;;;;;;-2.72;72.93;99374.16;5048863;28;20033;-55
2021/03/13 09:44:03;;;;;;;14.32;8.38;;;;;;;-2.50;74.04;99372.19;5046806;28;20022;-54
2021/03/13 09:46:30;;;;;;;12.52;6.45;;;;;;;-2.96;71.70;99371.81;5051348;28;20245;-55
2021/03/13 09:48:58;;;;;;;11.93;7.50;;;;;;;-3.13;72.68;99316.50;5049470;28;20108;-54
2021/03/13 09:51:25;;;;;;;16.15;8.90;;;;;;;-2.66;72.50;99371.78;5046682;28;20096;-54
2021/03/13 09:53:52;;;;;;;22.30;9.93;;;;;;;-2.46;73.60;99379.06;5046561;28;20041;-55
2021/03/13 09:56:29;;;;;;;12.35;8.55;;;;;;;-2.93;72.76;99307.72;5058273;28;20122;-55
2021/03/13 09:58:59;;;;;;;17.15;8.90;;;;;;;-2.29;71.90;99370.19;5042543;28;20033;-55
2021/03/13 10:01:25;;;;;;;18.50;8.73;;;;;;;-2.13;72.98;99365.50;5042326;28;20379;-57
2021/03/13 10:03:51;;;;;;;16.33;8.23;;;;;;;-1.96;71.67;99368.47;5044338;28;20033;-55
2021/03/13 10:06:17;;;;;;;15.45;8.48;;;;;;;-2.08;71.67;99347.03;5061195;28;20029;-56
2021/03/13 10:08:43;;;;;;;13.07;8.45;;;;;;;-1.83;71.77;99355.22;5062058;28;20256;-55
2021/03/13 10:11:09;;;;;;;14.68;9.02;;;;;;;-1.91;71.40;99377.91;5046150;28;20139;-54
2021/03/13 10:13:34;;;;;;;13.00;8.73;;;;;;;-2.32;72.19;99379.44;5051883;28;20036;-55
2021/03/13 10:16:04;;;;;;;14.32;8.57;;;;;;;-2.14;72.52;99353.66;5061470;28;20232;-56
2021/03/13 10:18:36;;;;;;;12.52;7.80;;;;;;;-2.28;72.68;99382.06;5061544;28;20033;-55
2021/03/13 10:21:02;;;;;;;18.17;8.18;;;;;;;-2.35;72.17;99371.72;5061688;28;20028;-54
2021/03/13 10:23:32;;;;;;;15.85;8.63;;;;;;;-2.11;71.64;99379.97;5061319;28;20029;-55
2021/03/13 10:25:59;;;;;;;14.25;7.05;;;;;;;-2.48;72.12;99330.88;5061509;28;20310;-55
2021/03/13 10:28:26;;;;;;;17.50;9.00;;;;;;;-2.94;72.21;99309.38;5061555;28;20040;-54
2021/03/13 10:31:04;;;;;;;13.85;7.57;;;;;;;-2.89;72.99;99314.56;5055196;28;20096;-55
2021/03/13 10:33:31;;;;;;;13.80;8.45;;;;;;;-2.69;72.89;99373.41;5042152;28;20048;-55
2021/03/13 10:35:57;;;;;;;19.33;10.00;;;;;;;-2.29;72.66;99380.34;5043782;28;20065;-53
2021/03/13 10:38:23;;;;;;;19.20;7.93;;;;;;;-2.39;72.12;99360.66;5057804;28;20017;-53
2021/03/13 10:40:53;;;;;;;20.17;9.18;;;;;;;-2.19;72.01;99360.31;5056507;28;20280;-54
2021/03/13 10:43:30;;;;;;;16.00;8.60;;;;;;;-2.31;72.15;99359.19;5042077;28;20026;-55
2021/03/13 10:45:56;;;;;;;16.80;8.77;;;;;;;-2.55;73.17;99359.41;5047516;28;20029;-54
2021/03/13 10:48:26;;;;;;;10.73;6.63;;;;;;;-2.30;72.58;99363.41;5048272;28;20066;-54
2021/03/13 10:50:52;;;;;;;15.02;8.10;;;;;;;-2.40;72.09;99366.53;5046229;28;20167;-55
2021/03/13 10:53:30;;;;;;;15.00;9.68;;;;;;;-2.31;72.59;99363.38;5045008;28;20103;-53
2021/03/13 10:56:02;;;;;;;16.20;9.73;;;;;;;-2.43;71.70;99395.19;5046811;28;20029;-54
2021/03/13 10:58:32;;;;;;;18.13;9.90;;;;;;;-2.56;74.13;99369.50;5054201;28;20053;-53
2021/03/13 11:00:59;;;;;;;17.17;9.27;;;;;;;-2.41;73.67;99361.44;5046103;28;20029;-54
2021/03/13 11:03:26;;;;;;;16.50;8.65;;;;;;;-2.54;73.02;99365.31;5045908;28;20030;-54
2021/03/13 11:05:53;;;;;;;15.55;8.60;;;;;;;-2.51;73.64;99353.59;5046046;28;20038;-55
2021/03/13 11:08:25;;;;;;;14.50;9.05;;;;;;;-2.24;72.89;99369.47;5047754;28;20032;-53
2021/03/13 11:10:52;;;;;;;13.95;9.35;;;;;;;-2.41;73.83;99352.13;5055337;28;20084;-54
2021/03/13 11:13:18;;;;;;;16.50;9.40;;;;;;;-2.07;73.11;99345.34;5053300;28;20030;-55
2021/03/13 11:15:45;;;;;;;17.70;10.05;;;;;;;-1.80;72.71;99360.38;5058136;28;20063;-53
2021/03/13 11:18:11;;;;;;;16.48;9.75;;;;;;;-2.01;73.20;99344.66;5057975;28;20049;-55
2021/03/13 11:20:38;;;;;;;18.80;9.43;;;;;;;-1.95;72.88;99350.72;5047369;28;20022;-53
2021/03/13 11:23:04;;;;;;;15.13;8.63;;;;;;;-2.09;72.63;99352.09;5045489;28;20103;-54
2021/03/13 11:25:30;;;;;;;14.38;8.75;;;;;;;-1.95;73.27;99343.13;5063380;28;20094;-54
2021/03/13 11:27:56;;;;;;;15.40;9.77;;;;;;;-1.68;73.54;99354.72;5064793;28;20059;-53
2021/03/13 11:30:22;;;;;;;16.80;9.38;;;;;;;-1.82;73.18;99345.94;5046341;28;20314;-52
2021/03/13 11:32:48;;;;;;;16.95;10.48;;;;;;;-1.63;73.63;99347.22;5057450;28;20028;-54
2021/03/13 11:35:15;;;;;;;15.05;9.55;;;;;;;-1.65;73.50;99349.72;5064650;28;20075;-54